Time;durP1;ratioP1;P1;durP2;ratioP2;P2;SDS_P1;SDS_P2;PMS_P1;PMS_P2;Temp;Humidity;BMP_temperature;BMP_pressure;BME280_temperature;BME280_humidity;BME280_pressure;Samples;Min_cycle;Max_cycle;Signal;HPM_P1;HPM_P2
2022/01/18 00:01:30;;;;;;;2.80;1.47;;;3.20;99.90;;;;;;5119972;28;20207;-57
2022/01/18 00:04:16;;;;;;;3.07;1.53;;;3.30;99.90;;;;;;5122638;28;20249;-61
2022/01/18 00:07:00;;;;;;;2.03;1.03;;;3.30;99.90;;;;;;5123732;28;20187;-54
2022/01/18 00:09:45;;;;;;;0.40;0.40;;;3.20;99.90;;;;;;5119347;28;20197;-54
2022/01/18 00:18:13;;;;;;;1.03;0.70;;;3.10;99.90;;;;;;5124149;27;20312;-58
2022/01/18 00:23:51;;;;;;;0.60;0.60;;;3.10;99.90;;;;;;5126938;27;20252;-60
2022/01/18 00:26:35;;;;;;;1.23;1.17;;;3.10;99.90;;;;;;5122954;27;20276;-57
2022/01/18 00:29:23;;;;;;;49.97;21.40;;;3.10;99.90;;;;;;5127538;27;20191;-54
2022/01/18 00:32:21;;;;;;;7.07;3.83;;;3.30;99.90;;;;;;5124739;27;20241;-61
2022/01/18 00:35:05;;;;;;;54.63;22.80;;;3.50;99.90;;;;;;5123119;27;20738;-60
2022/01/18 00:37:53;;;;;;;5.80;4.27;;;3.40;99.90;;;;;;5127679;27;20286;-60
2022/01/18 00:40:37;;;;;;;1.70;0.90;;;3.40;99.90;;;;;;5123335;27;20241;-56
2022/01/18 00:43:22;;;;;;;0.43;0.43;;;3.30;99.90;;;;;;5124236;27;20214;-52
2022/01/18 00:46:07;;;;;;;2.50;0.63;;;3.20;99.90;;;;;;5127454;27;20223;-59
2022/01/18 00:48:54;;;;;;;0.77;0.77;;;3.20;99.90;;;;;;5121687;27;20298;-60
2022/01/18 00:51:41;;;;;;;0.60;0.60;;;3.10;99.90;;;;;;5125343;27;20241;-59
2022/01/18 00:54:33;;;;;;;0.80;0.80;;;3.10;99.90;;;;;;5120795;27;20242;-60
2022/01/18 00:57:17;;;;;;;0.60;0.60;;;3.10;99.90;;;;;;5102428;28;20249;-60
2022/01/18 01:00:04;;;;;;;1.27;0.93;;;3.10;99.90;;;;;;5106614;28;20270;-55
2022/01/18 01:02:50;;;;;;;1.17;1.17;;;3.20;99.90;;;;;;5105489;28;20246;-58
2022/01/18 01:05:34;;;;;;;2.17;1.27;;;3.20;99.90;;;;;;5102233;28;20200;-56
2022/01/18 01:08:19;;;;;;;3.47;1.27;;;3.20;99.90;;;;;;5106946;28;20195;-47
2022/01/18 01:11:06;;;;;;;1.57;1.27;;;3.20;99.90;;;;;;5104080;28;20241;-61
2022/01/18 01:13:54;;;;;;;1.83;1.10;;;3.20;99.90;;;;;;5103629;28;20200;-58
2022/01/18 01:43:24;;;;;;;1.10;1.10;;;3.20;99.90;;;;;;5107093;28;20231;-55
2022/01/18 01:46:09;;;;;;;0.93;0.87;;;3.20;99.90;;;;;;5104374;28;20199;-61
2022/01/18 01:48:56;;;;;;;0.60;0.60;;;3.30;99.90;;;;;;5101722;28;20250;-54
2022/01/18 01:51:47;;;;;;;1.03;1.03;;;3.20;99.90;;;;;;5106128;28;20196;-59
2022/01/18 01:54:32;;;;;;;0.50;0.50;;;3.20;99.90;;;;;;5102904;28;20273;-61
2022/01/18 01:57:16;;;;;;;2.30;0.80;;;3.10;99.90;;;;;;5102253;28;20228;-58
2022/01/18 02:00:08;;;;;;;2.20;1.13;;;3.10;99.90;;;;;;5105866;28;20203;-50
2022/01/18 02:02:54;;;;;;;0.80;0.80;;;3.10;99.90;;;;;;5102127;28;20242;-55
2022/01/18 02:05:39;;;;;;;0.93;0.93;;;3.10;99.90;;;;;;5103218;28;20199;-60
2022/01/18 02:08:24;;;;;;;1.33;1.33;;;3.10;99.90;;;;;;5106185;28;20212;-59
2022/01/18 02:11:11;;;;;;;1.00;0.90;;;3.10;99.90;;;;;;5100787;28;20204;-56
2022/01/18 02:13:57;;;;;;;2.07;1.67;;;3.00;99.90;;;;;;5104254;28;20196;-55
2022/01/18 02:22:47;;;;;;;2.53;1.43;;;3.00;99.90;;;;;;5104931;28;20284;-56
2022/01/18 02:25:31;;;;;;;2.00;1.63;;;3.00;99.90;;;;;;5104886;28;20231;-56
2022/01/18 02:28:17;;;;;;;2.17;1.37;;;3.00;99.90;;;;;;5100559;28;20282;-57
2022/01/18 02:31:03;;;;;;;1.97;1.87;;;3.00;99.90;;;;;;5104453;28;20242;-47
2022/01/18 02:33:47;;;;;;;2.37;2.13;;;3.00;99.90;;;;;;5103766;28;20199;-59
2022/01/18 02:36:32;;;;;;;3.90;2.47;;;3.00;99.90;;;;;;5099950;28;20208;-59
2022/01/18 02:39:25;;;;;;;2.70;2.27;;;3.00;99.90;;;;;;5105429;28;20204;-48
2022/01/18 02:42:16;;;;;;;1.70;1.60;;;3.00;99.90;;;;;;5102193;28;20184;-59
2022/01/18 02:45:01;;;;;;;1.53;1.47;;;3.00;99.90;;;;;;5100840;28;20262;-58
2022/01/18 02:47:46;;;;;;;2.03;1.93;;;3.00;99.90;;;;;;5105273;28;20258;-58
2022/01/18 02:50:31;;;;;;;3.43;2.80;;;3.00;99.90;;;;;;5100592;28;20208;-61
2022/01/18 02:53:18;;;;;;;5.40;2.07;;;3.00;99.90;;;;;;5102317;28;20238;-60
2022/01/18 02:56:03;;;;;;;2.63;1.60;;;3.00;99.90;;;;;;5104592;28;20245;-54
2022/01/18 02:58:48;;;;;;;2.63;1.67;;;3.10;99.90;;;;;;5099816;28;20231;-57
2022/01/18 03:04:42;;;;;;;1.57;1.47;;;3.10;99.90;;;;;;5106007;28;20301;-55
2022/01/18 03:07:27;;;;;;;1.47;1.30;;;3.10;99.90;;;;;;5101022;28;20290;-56
2022/01/18 03:10:14;;;;;;;2.60;2.30;;;3.10;99.90;;;;;;5103906;28;20196;-53
2022/01/18 03:12:58;;;;;;;2.70;1.70;;;3.10;99.90;;;;;;5104471;28;20202;-58
2022/01/18 03:15:43;;;;;;;2.03;1.50;;;3.10;99.90;;;;;;5099587;28;20184;-50
2022/01/18 03:18:27;;;;;;;4.77;2.23;;;3.10;99.90;;;;;;5104431;28;20281;-50
2022/01/18 03:21:11;;;;;;;2.23;2.07;;;3.00;99.90;;;;;;5101971;28;20204;-60
2022/01/18 03:24:11;;;;;;;1.60;1.50;;;3.00;99.90;;;;;;5100736;28;20189;-53
2022/01/18 03:30:05;;;;;;;2.23;2.03;;;3.00;99.90;;;;;;5104929;28;20256;-59
2022/01/18 03:32:51;;;;;;;1.60;1.50;;;3.00;99.90;;;;;;5100510;28;20193;-56
2022/01/18 03:35:36;;;;;;;1.83;1.53;;;3.00;99.90;;;;;;5103989;28;20294;-51
2022/01/18 03:38:29;;;;;;;5.43;2.53;;;3.00;99.90;;;;;;5102179;28;20220;-53
2022/01/18 03:41:13;;;;;;;4.33;1.33;;;3.00;99.90;;;;;;5101022;28;20193;-49
2022/01/18 03:43:58;;;;;;;2.53;2.20;;;3.00;99.90;;;;;;5104629;28;20212;-55
2022/01/18 03:46:43;;;;;;;3.63;0.90;;;3.00;99.90;;;;;;5101268;28;20196;-57
2022/01/18 03:49:27;;;;;;;1.23;0.90;;;3.00;99.90;;;;;;5106376;28;20655;-62
2022/01/18 03:52:12;;;;;;;2.23;2.00;;;3.00;99.90;;;;;;5107985;28;20223;-54
2022/01/18 03:54:56;;;;;;;1.00;1.00;;;3.00;99.90;;;;;;5103520;28;20345;-53
2022/01/18 03:57:41;;;;;;;1.77;0.97;;;3.00;99.90;;;;;;5107788;28;20358;-55
2022/01/18 04:00:27;;;;;;;1.70;1.03;;;3.00;99.90;;;;;;5107492;28;20238;-60
2022/01/18 04:03:12;;;;;;;5.30;2.23;;;2.90;99.90;;;;;;5104033;28;20242;-55
2022/01/18 04:05:56;;;;;;;1.40;1.17;;;2.90;99.90;;;;;;5107871;28;20196;-60
2022/01/18 04:08:41;;;;;;;3.90;1.13;;;2.90;99.90;;;;;;5106265;28;20226;-60
2022/01/18 04:11:27;;;;;;;0.57;0.57;;;2.90;99.90;;;;;;5104725;28;20196;-61
2022/01/18 04:14:11;;;;;;;0.63;0.50;;;2.90;99.90;;;;;;5107814;28;20188;-57
2022/01/18 04:17:16;;;;;;;3.40;0.43;;;2.90;99.90;;;;;;5103357;28;20249;-56
2022/01/18 04:29:16;;;;;;;1.17;0.57;;;2.80;99.90;;;;;;5089789;28;20199;-51
2022/01/18 04:32:00;;;;;;;0.50;0.50;;;2.80;99.90;;;;;;5107890;28;20200;-56
2022/01/18 04:34:45;;;;;;;1.00;0.47;;;2.70;99.90;;;;;;5104434;28;20232;-51
2022/01/18 04:37:29;;;;;;;1.90;1.03;;;2.70;99.90;;;;;;5103420;28;21286;-51
2022/01/18 04:40:18;;;;;;;4.47;1.80;;;2.70;99.90;;;;;;5107243;28;20200;-55
2022/01/18 04:43:13;;;;;;;0.50;0.50;;;2.70;99.90;;;;;;5103613;28;20195;-60
2022/01/18 04:49:21;;;;;;;0.77;0.77;;;2.60;99.90;;;;;;5065662;28;20248;-51
2022/01/18 04:52:06;;;;;;;1.80;1.07;;;2.50;99.90;;;;;;5062595;28;20268;-56
2022/01/18 04:54:58;;;;;;;4.77;1.00;;;2.50;99.90;;;;;;5061665;28;20256;-51
2022/01/18 04:57:52;;;;;;;5.60;0.80;;;2.50;99.90;;;;;;5064568;28;20222;-49
2022/01/18 05:00:36;;;;;;;1.33;0.87;;;2.50;99.90;;;;;;5062749;28;20210;-53
2022/01/18 05:03:21;;;;;;;5.03;1.20;;;2.50;99.90;;;;;;5062164;28;20568;-55
2022/01/18 05:06:09;;;;;;;7.83;1.10;;;2.50;99.90;;;;;;5065064;28;20273;-48
2022/01/18 05:08:54;;;;;;;5.20;0.60;;;2.60;99.90;;;;;;5061665;28;20260;-55
2022/01/18 05:12:34;;;;;;;21.87;12.17;;;2.60;99.90;;;;;;5063678;28;20210;-46
2022/01/18 05:14:48;;;;;;;3.40;1.67;;;2.70;99.90;;;;;;5064780;28;20237;-53
2022/01/18 05:18:09;;;;;;;5.20;1.20;;;2.80;99.90;;;;;;5060123;28;20225;-55
2022/01/18 05:23:52;;;;;;;1.23;0.87;;;3.10;99.90;;;;;;5126121;27;20221;-52
2022/01/18 05:26:37;;;;;;;0.53;0.53;;;3.20;99.90;;;;;;5149398;27;20222;-58
2022/01/18 05:29:21;;;;;;;2.40;0.93;;;3.20;99.90;;;;;;5119108;27;20245;-56
2022/01/18 05:32:06;;;;;;;2.40;0.67;;;3.30;99.90;;;;;;5124261;27;20265;-48
2022/01/18 05:34:50;;;;;;;3.03;0.90;;;3.20;99.90;;;;;;5135628;27;20230;-58
2022/01/18 05:37:34;;;;;;;3.60;0.47;;;3.20;99.90;;;;;;5130958;27;20223;-56
2022/01/18 05:40:20;;;;;;;0.80;0.43;;;3.10;99.90;;;;;;5125593;27;20215;-61
2022/01/18 05:43:05;;;;;;;0.47;0.47;;;3.10;99.90;;;;;;5113155;27;20507;-58
2022/01/18 05:45:51;;;;;;;1.70;0.63;;;3.00;99.90;;;;;;5121361;27;20184;-51
2022/01/18 05:48:35;;;;;;;1.43;0.73;;;3.00;99.90;;;;;;5124264;27;20191;-62
2022/01/18 05:51:20;;;;;;;2.37;0.97;;;2.90;99.90;;;;;;5121237;27;20257;-54
2022/01/18 05:54:05;;;;;;;0.83;0.83;;;2.90;99.90;;;;;;5124786;27;20192;-56
2022/01/18 05:56:50;;;;;;;0.37;0.37;;;2.90;99.90;;;;;;5121708;27;20267;-60
2022/01/18 05:59:38;;;;;;;0.80;0.57;;;3.00;99.90;;;;;;5120772;27;20179;-54
2022/01/18 06:02:47;;;;;;;1.27;0.93;;;2.90;99.90;;;;;;5124572;27;20188;-55
2022/01/18 06:08:36;;;;;;;1.80;1.43;;;2.80;99.90;;;;;;5118942;27;20296;-50
2022/01/18 06:11:20;;;;;;;0.93;0.80;;;2.80;99.90;;;;;;5123962;27;20192;-52
2022/01/18 06:14:04;;;;;;;6.20;1.03;;;2.90;99.90;;;;;;5118195;27;20244;-61
2022/01/18 06:16:48;;;;;;;4.77;1.20;;;2.80;99.90;;;;;;5122687;27;20187;-58
2022/01/18 06:19:34;;;;;;;0.77;0.70;;;2.80;99.90;;;;;;5123043;27;20268;-57
2022/01/18 06:22:19;;;;;;;0.40;0.30;;;2.80;99.90;;;;;;5118999;27;20191;-54
2022/01/18 06:25:05;;;;;;;2.00;0.80;;;2.80;99.90;;;;;;5123046;27;20195;-52
2022/01/18 06:27:51;;;;;;;3.40;1.67;;;2.80;99.90;;;;;;5124273;27;20214;-57
2022/01/18 06:30:35;;;;;;;4.97;0.97;;;2.80;99.90;;;;;;5118062;27;20187;-59
2022/01/18 06:33:19;;;;;;;0.80;0.63;;;2.80;99.90;;;;;;5123301;27;20227;-52
2022/01/18 06:36:04;;;;;;;0.70;0.63;;;2.80;99.90;;;;;;5121265;27;20227;-61
2022/01/18 06:38:49;;;;;;;0.87;0.83;;;2.80;99.90;;;;;;5120471;27;20224;-54
2022/01/18 06:41:34;;;;;;;0.93;0.93;;;2.80;99.90;;;;;;5131184;27;20336;-58
2022/01/18 06:44:19;;;;;;;2.73;1.40;;;2.90;99.90;;;;;;5127492;27;20191;-54
2022/01/18 06:47:04;;;;;;;2.57;1.77;;;2.80;99.90;;;;;;5132796;27;20191;-56
2022/01/18 06:49:48;;;;;;;1.17;1.00;;;2.80;99.90;;;;;;5135920;27;20209;-58
2022/01/18 06:52:33;;;;;;;0.93;0.93;;;2.80;99.90;;;;;;5129081;27;20183;-57
2022/01/18 06:55:19;;;;;;;0.70;0.70;;;2.70;99.90;;;;;;5133149;27;20238;-58
2022/01/18 06:58:03;;;;;;;0.57;0.57;;;2.80;99.90;;;;;;5133497;27;20272;-57
2022/01/18 07:00:48;;;;;;;1.37;0.83;;;2.70;99.90;;;;;;5102041;28;20540;-57
2022/01/18 07:03:32;;;;;;;7.63;1.27;;;2.60;99.90;;;;;;5104701;28;20232;-57
2022/01/18 07:06:17;;;;;;;3.10;1.33;;;2.60;99.90;;;;;;5119545;28;20191;-59
2022/01/18 07:09:03;;;;;;;1.67;1.57;;;2.50;99.90;;;;;;5119907;28;20234;-60
2022/01/18 07:11:47;;;;;;;1.80;0.80;;;2.40;99.90;;;;;;5153147;27;20267;-57
2022/01/18 07:14:32;;;;;;;1.97;0.90;;;2.40;99.90;;;;;;5109244;27;21156;-59
2022/01/18 07:17:16;;;;;;;2.70;1.00;;;2.40;99.90;;;;;;5121138;27;20230;-55
2022/01/18 07:20:01;;;;;;;1.63;1.53;;;2.40;99.90;;;;;;5122168;27;20203;-50
2022/01/18 07:22:47;;;;;;;2.97;1.10;;;2.50;99.90;;;;;;5121488;27;20199;-59
2022/01/18 07:25:34;;;;;;;1.73;0.90;;;2.60;99.90;;;;;;5119823;27;20252;-58
2022/01/18 07:28:19;;;;;;;5.07;1.43;;;2.50;99.90;;;;;;5115886;27;20210;-59
2022/01/18 07:31:03;;;;;;;1.23;0.50;;;2.50;99.90;;;;;;5121572;27;20210;-60
2022/01/18 07:33:49;;;;;;;2.93;1.00;;;2.60;99.90;;;;;;5126724;27;20179;-60
2022/01/18 07:36:34;;;;;;;1.77;0.87;;;2.70;99.90;;;;;;5124263;27;20308;-62
2022/01/18 07:39:19;;;;;;;0.77;0.77;;;2.70;99.90;;;;;;5125381;27;20293;-45
2022/01/18 07:42:04;;;;;;;7.73;3.50;;;2.80;99.90;;;;;;5132700;27;20255;-45
2022/01/18 07:44:48;;;;;;;1.63;0.90;;;2.90;99.90;;;;;;5122422;27;20203;-50
2022/01/18 07:47:33;;;;;;;6.83;1.37;;;3.00;99.90;;;;;;5112418;27;20318;-60
2022/01/18 07:50:17;;;;;;;0.50;0.50;;;3.00;99.90;;;;;;5115425;27;20196;-62
2022/01/18 07:53:04;;;;;;;4.57;0.90;;;3.00;99.90;;;;;;5148342;27;20192;-47
2022/01/18 07:55:49;;;;;;;0.57;0.53;;;3.00;99.90;;;;;;5120016;27;20210;-63
2022/01/18 07:58:33;;;;;;;0.77;0.77;;;3.10;99.90;;;;;;5124509;27;20227;-54
2022/01/18 08:01:19;;;;;;;4.70;1.00;;;3.10;99.90;;;;;;5118345;27;20244;-52
2022/01/18 08:04:04;;;;;;;2.40;0.70;;;3.20;99.90;;;;;;5133827;27;20264;-48
2022/01/18 08:06:48;;;;;;;1.83;0.93;;;3.30;99.90;;;;;;5133731;27;20202;-65
2022/01/18 08:09:33;;;;;;;5.17;1.27;;;3.30;99.90;;;;;;5118848;27;20324;-49
2022/01/18 08:12:17;;;;;;;13.33;4.57;;;3.40;99.90;;;;;;5130560;27;20279;-48
2022/01/18 08:15:12;;;;;;;0.77;0.77;;;3.50;99.90;;;;;;5146199;27;20207;-57
2022/01/18 08:17:58;;;;;;;0.60;0.60;;;3.50;99.90;;;;;;5123979;27;20238;-62
2022/01/18 08:20:42;;;;;;;3.13;1.00;;;3.50;99.90;;;;;;5124753;27;20268;-55
2022/01/18 08:23:26;;;;;;;3.10;1.00;;;3.50;99.90;;;;;;5124615;27;20288;-55
2022/01/18 08:26:11;;;;;;;0.57;0.50;;;3.60;99.90;;;;;;5131895;27;20195;-56
2022/01/18 08:28:55;;;;;;;4.10;0.90;;;3.50;99.90;;;;;;5123835;27;20266;-51
2022/01/18 08:31:41;;;;;;;0.50;0.50;;;3.60;99.90;;;;;;5113491;27;20190;-48
2022/01/18 08:34:25;;;;;;;0.30;0.30;;;3.70;99.90;;;;;;5112920;27;20220;-58
2022/01/18 08:37:10;;;;;;;2.60;0.80;;;3.70;99.90;;;;;;5126209;27;20227;-48
2022/01/18 08:39:54;;;;;;;1.23;0.50;;;3.70;99.90;;;;;;5128809;27;20215;-49
2022/01/18 08:42:39;;;;;;;1.07;0.43;;;3.80;99.90;;;;;;5117398;27;20191;-57
2022/01/18 08:45:23;;;;;;;4.40;0.60;;;3.80;99.90;;;;;;5112179;27;20264;-49
2022/01/18 08:48:09;;;;;;;1.77;0.67;;;3.70;99.90;;;;;;5111157;27;20213;-47
2022/01/18 08:50:56;;;;;;;1.80;0.87;;;3.80;99.90;;;;;;5125354;27;20222;-52
2022/01/18 08:53:41;;;;;;;0.40;0.40;;;3.80;99.90;;;;;;5123486;27;20241;-58
2022/01/18 08:56:26;;;;;;;2.43;1.17;;;3.90;99.90;;;;;;5114045;27;20284;-52
2022/01/18 08:59:10;;;;;;;4.40;1.07;;;4.00;99.90;;;;;;5125251;27;20219;-54
2022/01/18 09:01:54;;;;;;;1.90;0.57;;;4.00;99.90;;;;;;5144688;27;20320;-59
2022/01/18 09:04:39;;;;;;;2.97;0.93;;;4.00;99.90;;;;;;5114400;27;20190;-46
2022/01/18 09:07:24;;;;;;;0.03;0.03;;;4.20;99.90;;;;;;5128646;27;20194;-54
2022/01/18 09:10:11;;;;;;;1.17;0.50;;;4.20;99.90;;;;;;5120674;27;20258;-45
2022/01/18 09:12:55;;;;;;;0.43;0.43;;;4.30;99.90;;;;;;5114018;27;20280;-47
2022/01/18 09:15:39;;;;;;;0.60;0.60;;;4.30;99.90;;;;;;5123484;27;20198;-60
2022/01/18 09:18:24;;;;;;;1.67;1.10;;;4.40;99.90;;;;;;5122580;27;20223;-48
2022/01/18 09:21:08;;;;;;;4.07;0.67;;;4.50;99.90;;;;;;5125163;27;20207;-53
2022/01/18 09:23:53;;;;;;;0.33;0.33;;;4.50;99.90;;;;;;5104587;27;20231;-62
2022/01/18 09:26:39;;;;;;;1.37;0.53;;;4.50;99.90;;;;;;5124396;27;20232;-51
2022/01/18 09:29:23;;;;;;;6.13;1.03;;;4.30;99.90;;;;;;5161049;27;20207;-63
2022/01/18 09:32:08;;;;;;;0.43;0.43;;;4.10;99.90;;;;;;5122315;27;20191;-57
2022/01/18 09:34:53;;;;;;;0.60;0.60;;;4.10;99.90;;;;;;5120536;27;20293;-51
2022/01/18 09:37:37;;;;;;;1.10;0.50;;;4.20;99.90;;;;;;5118006;27;20307;-47
2022/01/18 09:40:23;;;;;;;3.20;0.93;;;4.50;99.90;;;;;;5132642;27;20198;-46
2022/01/18 09:43:11;;;;;;;1.43;0.40;;;4.60;99.90;;;;;;5110637;27;20199;-50
2022/01/18 09:45:56;;;;;;;0.73;0.40;;;4.90;99.90;;;;;;5107659;27;20210;-55
2022/01/18 09:48:41;;;;;;;1.83;0.40;;;5.10;99.90;;;;;;5155468;27;20200;-52
2022/01/18 09:51:28;;;;;;;1.70;0.50;;;4.70;99.90;;;;;;5130919;27;20283;-47
2022/01/18 09:54:12;;;;;;;2.23;0.17;;;4.80;99.90;;;;;;5120152;27;20191;-50
2022/01/18 09:56:57;;;;;;;0.93;0.40;;;4.90;99.90;;;;;;5131420;27;20666;-51
2022/01/18 09:59:41;;;;;;;1.50;0.47;;;4.80;99.90;;;;;;5118023;27;20257;-54
2022/01/18 10:02:27;;;;;;;2.03;0.53;;;4.90;99.90;;;;;;5121950;27;20281;-60
2022/01/18 10:05:30;;;;;;;1.43;0.53;;;4.80;99.90;;;;;;5115478;27;20245;-57
2022/01/18 10:08:16;;;;;;;2.27;0.37;;;4.90;99.90;;;;;;5108403;27;20192;-57
2022/01/18 10:11:14;;;;;;;0.20;0.20;;;4.70;99.90;;;;;;5125862;27;20200;-58
2022/01/18 10:13:58;;;;;;;7.03;0.83;;;4.70;99.90;;;;;;5127636;27;20244;-58
2022/01/18 10:16:46;;;;;;;0.50;0.50;;;4.90;99.90;;;;;;5106298;27;20184;-59
2022/01/18 10:19:35;;;;;;;2.27;1.17;;;5.00;99.90;;;;;;5118535;27;20296;-55
2022/01/18 10:22:27;;;;;;;2.73;0.50;;;4.90;99.90;;;;;;5130116;27;20210;-54
2022/01/18 10:25:12;;;;;;;2.40;0.50;;;5.10;99.90;;;;;;5110543;27;20260;-58
2022/01/18 10:27:57;;;;;;;2.40;0.40;;;5.50;99.90;;;;;;5104418;27;20250;-45
2022/01/18 10:30:47;;;;;;;1.70;1.00;;;5.40;99.90;;;;;;5116584;27;20275;-62
2022/01/18 10:33:46;;;;;;;1.20;0.77;;;5.60;99.90;;;;;;5136648;27;20322;-48
2022/01/18 10:36:31;;;;;;;2.67;0.60;;;5.60;99.90;;;;;;5118885;27;20249;-52
2022/01/18 10:39:23;;;;;;;2.70;0.30;;;5.60;99.90;;;;;;5127028;27;20219;-60
2022/01/18 10:42:25;;;;;;;1.97;0.43;;;5.80;99.90;;;;;;5107830;27;20259;-55
2022/01/18 10:45:34;;;;;;;7.97;0.70;;;5.60;99.90;;;;;;5105340;27;20194;-55
2022/01/18 10:48:18;;;;;;;1.30;0.50;;;5.40;99.90;;;;;;5129934;27;20192;-56
2022/01/18 10:51:02;;;;;;;5.10;0.47;;;5.50;99.90;;;;;;5126524;27;20210;-56
2022/01/18 10:54:00;;;;;;;1.10;0.40;;;5.60;99.90;;;;;;5116945;27;20214;-56
2022/01/18 10:56:47;;;;;;;1.90;0.93;;;6.00;99.90;;;;;;5127409;27;20209;-62
2022/01/18 10:59:31;;;;;;;0.50;0.50;;;6.20;99.90;;;;;;5118088;27;20208;-58
2022/01/18 11:02:20;;;;;;;1.63;0.50;;;6.00;99.90;;;;;;5117521;27;20194;-52
2022/01/18 11:05:18;;;;;;;4.40;1.00;;;5.80;99.90;;;;;;5121954;27;20241;-57
2022/01/18 11:08:05;;;;;;;2.77;0.83;;;5.70;99.90;;;;;;5121072;27;20252;-59
2022/01/18 11:10:50;;;;;;;8.60;1.37;;;5.70;99.90;;;;;;5123509;27;20187;-53
2022/01/18 11:13:36;;;;;;;6.77;1.10;;;5.70;99.90;;;;;;5113845;27;20199;-56
2022/01/18 11:16:26;;;;;;;0.87;0.60;;;5.50;99.90;;;;;;5140446;27;20274;-46
2022/01/18 11:19:31;;;;;;;6.07;0.60;;;5.30;99.90;;;;;;5121471;27;20275;-59
2022/01/18 11:22:16;;;;;;;0.60;0.60;;;5.80;99.90;;;;;;5115728;27;20207;-62
2022/01/18 11:25:03;;;;;;;3.43;0.97;;;6.40;99.90;;;;;;5113887;27;20191;-46
2022/01/18 11:27:52;;;;;;;0.30;0.30;;;6.40;99.90;;;;;;5133728;27;20211;-60
2022/01/18 11:30:42;;;;;;;0.67;0.57;;;6.60;99.90;;;;;;5120106;27;20222;-63
2022/01/18 11:33:30;;;;;;;0.50;0.50;;;6.90;99.90;;;;;;5123236;27;20236;-51
2022/01/18 11:36:20;;;;;;;1.30;1.20;;;7.00;99.90;;;;;;5126096;27;20276;-60
2022/01/18 11:39:07;;;;;;;1.87;0.97;;;7.10;99.90;;;;;;5130591;27;20264;-58
2022/01/18 11:42:04;;;;;;;6.43;1.57;;;7.20;99.90;;;;;;5104762;27;20196;-61
2022/01/18 11:44:49;;;;;;;4.60;1.00;;;7.20;99.90;;;;;;5111876;27;20207;-50
2022/01/18 11:47:34;;;;;;;2.13;0.63;;;7.40;99.90;;;;;;5113438;27;20202;-60
2022/01/18 11:50:18;;;;;;;0.50;0.47;;;7.30;99.90;;;;;;5132937;27;20233;-55
2022/01/18 11:53:28;;;;;;;3.20;1.07;;;7.50;99.90;;;;;;5127767;27;20199;-53
2022/01/18 11:56:37;;;;;;;2.77;0.40;;;7.40;99.90;;;;;;5111858;27;20270;-62
2022/01/18 11:59:27;;;;;;;4.47;1.00;;;7.10;99.90;;;;;;5138235;27;20223;-58
2022/01/18 12:02:29;;;;;;;0.93;0.70;;;6.90;99.90;;;;;;5134160;27;20195;-58
2022/01/18 12:05:20;;;;;;;0.50;0.50;;;7.10;99.90;;;;;;5125850;27;20202;-62
2022/01/18 12:08:05;;;;;;;1.53;0.83;;;6.80;99.90;;;;;;5112107;27;20199;-48
2022/01/18 12:10:49;;;;;;;2.40;0.90;;;6.80;99.90;;;;;;5126086;27;20217;-55
2022/01/18 12:13:37;;;;;;;2.10;1.13;;;6.80;99.90;;;;;;5114644;27;20191;-49
2022/01/18 12:16:26;;;;;;;1.50;0.40;;;6.90;99.90;;;;;;5125758;27;20190;-49
2022/01/18 12:19:12;;;;;;;0.87;0.60;;;6.40;99.90;;;;;;5123218;27;20220;-53
2022/01/18 12:21:58;;;;;;;0.53;0.30;;;6.50;99.90;;;;;;5125871;27;20598;-59
2022/01/18 12:24:46;;;;;;;0.50;0.50;;;6.60;99.90;;;;;;5118957;27;20219;-51
2022/01/18 12:27:32;;;;;;;1.20;0.47;;;6.60;99.90;;;;;;5124221;27;20196;-57
2022/01/18 12:33:21;;;;;;;2.63;0.83;;;6.60;99.90;;;;;;5129545;27;20199;-47
2022/01/18 12:36:31;;;;;;;1.43;0.43;;;6.70;99.90;;;;;;5114247;27;20251;-54
2022/01/18 12:39:16;;;;;;;0.53;0.50;;;6.80;99.90;;;;;;5120441;27;20255;-56
2022/01/18 12:42:03;;;;;;;4.97;1.93;;;6.40;99.90;;;;;;5124524;27;20203;-51
2022/01/18 12:44:48;;;;;;;1.87;0.97;;;6.40;99.90;;;;;;5124943;27;20192;-58
2022/01/18 12:47:35;;;;;;;3.00;0.70;;;6.40;99.90;;;;;;5113479;27;20192;-58
2022/01/18 12:50:26;;;;;;;0.77;0.50;;;6.50;99.90;;;;;;5127131;27;20194;-48
2022/01/18 12:53:15;;;;;;;4.63;0.90;;;6.50;99.90;;;;;;5121797;27;20284;-60
2022/01/18 12:56:02;;;;;;;0.60;0.30;;;6.60;99.90;;;;;;5115647;27;20195;-59
2022/01/18 12:58:48;;;;;;;0.90;0.87;;;6.70;99.90;;;;;;5125803;27;20227;-53
2022/01/18 13:01:33;;;;;;;3.87;0.40;;;6.40;99.90;;;;;;5125197;27;20203;-60
2022/01/18 13:04:20;;;;;;;2.13;0.70;;;6.40;99.90;;;;;;5143994;27;20264;-53
2022/01/18 13:07:04;;;;;;;1.70;0.90;;;6.40;99.90;;;;;;5128299;27;20199;-57
2022/01/18 13:10:09;;;;;;;0.50;0.50;;;6.30;99.90;;;;;;5118816;27;20191;-59
2022/01/18 13:12:53;;;;;;;0.63;0.43;;;6.30;99.90;;;;;;5119829;27;20248;-45
2022/01/18 13:25:18;;;;;;;0.80;0.80;;;6.40;99.90;;;;;;5121109;27;20264;-56
2022/01/18 13:28:04;;;;;;;0.60;0.60;;;6.20;99.90;;;;;;5117013;27;20195;-53
2022/01/18 13:30:49;;;;;;;3.13;1.30;;;6.20;99.90;;;;;;5114101;27;20194;-52
2022/01/18 13:33:56;;;;;;;4.97;1.97;;;6.20;99.90;;;;;;5109930;27;20313;-47
2022/01/18 13:36:51;;;;;;;4.83;2.03;;;6.10;99.90;;;;;;5130465;27;20194;-60
2022/01/18 13:39:39;;;;;;;0.77;0.77;;;6.10;99.90;;;;;;5113720;27;20287;-50
2022/01/18 13:42:29;;;;;;;0.40;0.40;;;5.90;99.90;;;;;;5118684;27;20237;-50
2022/01/18 13:45:24;;;;;;;1.23;1.00;;;5.80;99.90;;;;;;5121482;27;20215;-49
2022/01/18 13:48:10;;;;;;;1.33;0.50;;;5.90;99.90;;;;;;5116768;27;20255;-53
2022/01/18 13:50:56;;;;;;;0.67;0.67;;;6.00;99.90;;;;;;5117947;27;20199;-55
2022/01/18 13:53:41;;;;;;;1.07;0.83;;;5.90;99.90;;;;;;5123019;27;20194;-63
2022/01/18 13:56:26;;;;;;;0.90;0.83;;;6.00;99.90;;;;;;5114449;27;20233;-59
2022/01/18 13:59:10;;;;;;;0.60;0.60;;;6.00;99.90;;;;;;5121687;27;20216;-59
2022/01/18 14:01:55;;;;;;;0.90;0.90;;;6.00;99.90;;;;;;5119413;27;20226;-53
2022/01/18 14:04:41;;;;;;;1.03;0.90;;;6.00;99.90;;;;;;5117740;27;20199;-45
2022/01/18 14:07:26;;;;;;;3.20;1.07;;;5.70;99.90;;;;;;5125138;27;20265;-57
2022/01/18 14:10:10;;;;;;;0.77;0.77;;;5.70;99.90;;;;;;5119846;27;20217;-50
2022/01/18 14:12:55;;;;;;;1.47;0.53;;;5.70;99.90;;;;;;5112646;27;20249;-63
2022/01/18 14:15:43;;;;;;;0.40;0.40;;;5.90;99.90;;;;;;5125754;27;20195;-58
2022/01/18 14:18:27;;;;;;;0.50;0.50;;;5.90;99.90;;;;;;5111277;27;20242;-49
2022/01/18 14:21:27;;;;;;;1.63;0.70;;;5.90;99.90;;;;;;5122570;27;20191;-55
2022/01/18 14:24:20;;;;;;;2.67;1.03;;;6.00;99.90;;;;;;5131645;27;20191;-56
2022/01/18 14:27:08;;;;;;;1.67;0.67;;;5.90;99.90;;;;;;5115172;27;20251;-47
2022/01/18 14:29:56;;;;;;;1.07;0.37;;;5.60;99.90;;;;;;5118330;27;20199;-56
2022/01/18 14:32:42;;;;;;;1.30;0.80;;;5.60;99.90;;;;;;5129604;27;20207;-58
2022/01/18 14:35:27;;;;;;;2.57;0.77;;;5.70;99.90;;;;;;5111994;27;20247;-57
2022/01/18 14:38:14;;;;;;;0.60;0.53;;;5.70;99.90;;;;;;5112691;27;20231;-57
2022/01/18 14:40:58;;;;;;;0.67;0.67;;;5.70;99.90;;;;;;5118416;27;20270;-63
2022/01/18 14:43:43;;;;;;;0.50;0.50;;;5.70;99.90;;;;;;5121341;27;20228;-61
2022/01/18 14:46:47;;;;;;;1.57;1.00;;;5.70;99.90;;;;;;5120313;27;20264;-59
2022/01/18 14:49:32;;;;;;;0.83;0.70;;;5.70;99.90;;;;;;5125389;27;20210;-49
2022/01/18 14:52:16;;;;;;;2.27;0.50;;;5.70;99.90;;;;;;5116105;27;20202;-46
2022/01/18 14:55:00;;;;;;;1.60;0.70;;;5.70;99.90;;;;;;5122821;27;20239;-50
2022/01/18 14:57:45;;;;;;;2.43;0.70;;;5.70;99.90;;;;;;5117861;27;20227;-61
2022/01/18 15:00:30;;;;;;;1.30;1.20;;;5.70;99.90;;;;;;5121405;27;20187;-57
2022/01/18 15:03:16;;;;;;;0.60;0.30;;;5.60;99.90;;;;;;5139434;27;20237;-56
2022/01/18 15:06:00;;;;;;;1.47;0.77;;;5.70;99.90;;;;;;5128867;27;20198;-46
2022/01/18 15:08:44;;;;;;;1.00;0.93;;;5.60;99.90;;;;;;5139001;27;20213;-59
2022/01/18 15:11:29;;;;;;;0.23;0.23;;;5.60;99.90;;;;;;5127589;27;20252;-54
2022/01/18 15:14:13;;;;;;;0.83;0.83;;;5.70;99.90;;;;;;5129429;27;20265;-53
2022/01/18 15:16:59;;;;;;;0.93;0.50;;;5.60;99.90;;;;;;5137484;27;20222;-55
2022/01/18 15:19:43;;;;;;;0.60;0.60;;;5.60;99.90;;;;;;5136226;27;20214;-57
2022/01/18 15:22:27;;;;;;;0.47;0.47;;;5.60;99.90;;;;;;5128869;27;20244;-62
2022/01/18 15:25:12;;;;;;;0.97;0.57;;;5.60;99.90;;;;;;5132339;27;20230;-55
2022/01/18 15:27:57;;;;;;;0.50;0.50;;;5.50;99.90;;;;;;5124023;27;20199;-58
2022/01/18 15:30:41;;;;;;;0.77;0.33;;;5.50;99.90;;;;;;5121328;28;20262;-63
2022/01/18 15:33:25;;;;;;;0.63;0.47;;;5.50;99.90;;;;;;5123600;28;20248;-60
2022/01/18 15:36:09;;;;;;;0.37;0.37;;;5.40;99.90;;;;;;5122037;27;20278;-56
2022/01/18 15:38:53;;;;;;;0.23;0.23;;;5.40;99.90;;;;;;5125990;27;20222;-45
2022/01/18 15:41:39;;;;;;;0.67;0.57;;;5.40;99.90;;;;;;5122727;27;20235;-63
2022/01/18 15:44:23;;;;;;;0.60;0.60;;;5.50;99.90;;;;;;5125776;27;20199;-55
2022/01/18 15:47:09;;;;;;;2.30;0.80;;;5.40;99.90;;;;;;5129557;27;20277;-62
2022/01/18 15:49:53;;;;;;;0.50;0.50;;;5.30;99.90;;;;;;5126046;27;20223;-59
2022/01/18 15:52:38;;;;;;;0.20;0.20;;;5.30;99.90;;;;;;5127441;27;20232;-56
2022/01/18 15:55:22;;;;;;;0.83;0.20;;;5.30;99.90;;;;;;5129949;27;20200;-62
2022/01/18 15:58:08;;;;;;;0.50;0.50;;;5.30;99.90;;;;;;5124438;27;20222;-56
2022/01/18 16:00:52;;;;;;;0.93;0.60;;;5.30;99.90;;;;;;5128525;27;20200;-61